sensor_id;sensor_type;location;lat;lon;timestamp;pressure;altitude;pressure_sealevel;temperature;humidity
74798;BME280;63326;45.088;7.658;2024-02-28T00:01:53;98381.34;;;5.88;100.00
74798;BME280;63326;45.088;7.658;2024-02-28T00:04:23;98328.19;;;5.54;100.00
74798;BME280;63326;45.088;7.658;2024-02-28T00:06:51;98386.16;;;5.85;100.00
74798;BME280;63326;45.088;7.658;2024-02-28T00:09:21;98393.31;;;5.92;100.00
74798;BME280;63326;45.088;7.658;2024-02-28T00:11:49;98396.50;;;5.96;100.00
74798;BME280;63326;45.088;7.658;2024-02-28T00:14:16;98398.47;;;5.94;100.00
74798;BME280;63326;45.088;7.658;2024-02-28T00:16:47;98372.16;;;5.75;100.00
74798;BME280;63326;45.088;7.658;2024-02-28T00:19:14;98378.31;;;5.83;100.00
74798;BME280;63326;45.088;7.658;2024-02-28T00:21:41;98405.50;;;5.95;100.00
74798;BME280;63326;45.088;7.658;2024-02-28T00:24:09;98392.66;;;5.99;100.00
74798;BME280;63326;45.088;7.658;2024-02-28T00:26:43;98390.84;;;6.07;100.00
74798;BME280;63326;45.088;7.658;2024-02-28T00:29:19;98401.81;;;6.12;100.00
74798;BME280;63326;45.088;7.658;2024-02-28T00:31:46;98376.69;;;5.99;100.00
74798;BME280;63326;45.088;7.658;2024-02-28T00:34:13;98366.50;;;5.86;100.00
74798;BME280;63326;45.088;7.658;2024-02-28T00:36:41;98394.16;;;6.09;100.00
74798;BME280;63326;45.088;7.658;2024-02-28T00:39:21;98380.50;;;6.04;100.00
74798;BME280;63326;45.088;7.658;2024-02-28T00:41:49;98410.84;;;6.19;100.00
74798;BME280;63326;45.088;7.658;2024-02-28T00:44:15;98410.66;;;6.13;100.00
74798;BME280;63326;45.088;7.658;2024-02-28T00:46:43;98395.84;;;6.10;100.00
74798;BME280;63326;45.088;7.658;2024-02-28T00:49:12;98411.84;;;6.18;100.00
74798;BME280;63326;45.088;7.658;2024-02-28T00:51:41;98394.16;;;6.09;100.00
74798;BME280;63326;45.088;7.658;2024-02-28T00:54:08;98408.34;;;6.18;100.00
74798;BME280;63326;45.088;7.658;2024-02-28T00:56:36;98402.66;;;6.13;100.00
74798;BME280;63326;45.088;7.658;2024-02-28T00:59:03;98412.00;;;6.17;100.00
74798;BME280;63326;45.088;7.658;2024-02-28T01:01:29;98385.81;;;6.12;100.00
74798;BME280;63326;45.088;7.658;2024-02-28T01:03:59;98409.34;;;6.17;100.00
74798;BME280;63326;45.088;7.658;2024-02-28T01:06:27;98405.69;;;6.26;100.00
74798;BME280;63326;45.088;7.658;2024-02-28T01:08:54;98404.16;;;6.32;100.00
74798;BME280;63326;45.088;7.658;2024-02-28T01:11:21;98394.50;;;6.14;100.00
74798;BME280;63326;45.088;7.658;2024-02-28T01:13:48;98419.50;;;6.21;100.00
74798;BME280;63326;45.088;7.658;2024-02-28T01:16:15;98411.16;;;6.08;100.00
74798;BME280;63326;45.088;7.658;2024-02-28T01:18:45;98403.66;;;6.12;100.00
74798;BME280;63326;45.088;7.658;2024-02-28T01:21:12;98417.31;;;6.33;100.00
74798;BME280;63326;45.088;7.658;2024-02-28T01:23:41;98403.50;;;6.38;100.00
74798;BME280;63326;45.088;7.658;2024-02-28T01:26:09;98401.16;;;6.35;100.00
74798;BME280;63326;45.088;7.658;2024-02-28T01:28:37;98403.31;;;6.31;100.00
74798;BME280;63326;45.088;7.658;2024-02-28T01:31:07;98415.16;;;6.29;100.00
74798;BME280;63326;45.088;7.658;2024-02-28T01:33:34;98408.16;;;6.19;100.00
74798;BME280;63326;45.088;7.658;2024-02-28T01:36:01;98422.16;;;6.30;100.00
74798;BME280;63326;45.088;7.658;2024-02-28T01:38:28;98414.34;;;6.20;100.00
74798;BME280;63326;45.088;7.658;2024-02-28T01:40:59;98431.66;;;6.24;100.00
74798;BME280;63326;45.088;7.658;2024-02-28T01:43:26;98441.00;;;6.28;100.00
74798;BME280;63326;45.088;7.658;2024-02-28T01:46:01;98442.84;;;6.28;100.00
74798;BME280;63326;45.088;7.658;2024-02-28T01:48:29;98446.66;;;6.25;100.00
74798;BME280;63326;45.088;7.658;2024-02-28T01:50:56;98408.47;;;6.25;100.00
74798;BME280;63326;45.088;7.658;2024-02-28T01:53:25;98447.66;;;6.48;100.00
74798;BME280;63326;45.088;7.658;2024-02-28T01:55:53;98438.19;;;6.46;100.00
74798;BME280;63326;45.088;7.658;2024-02-28T01:58:21;98441.31;;;6.41;100.00
74798;BME280;63326;45.088;7.658;2024-02-28T02:00:52;98434.00;;;6.27;100.00
74798;BME280;63326;45.088;7.658;2024-02-28T02:03:24;98448.84;;;6.30;100.00
74798;BME280;63326;45.088;7.658;2024-02-28T02:05:53;98434.34;;;6.16;100.00
74798;BME280;63326;45.088;7.658;2024-02-28T02:08:21;98454.81;;;6.23;100.00
74798;BME280;63326;45.088;7.658;2024-02-28T02:10:48;98451.16;;;6.16;100.00
74798;BME280;63326;45.088;7.658;2024-02-28T02:13:17;98434.31;;;6.00;100.00
74798;BME280;63326;45.088;7.658;2024-02-28T02:15:46;98454.47;;;6.02;100.00
74798;BME280;63326;45.088;7.658;2024-02-28T02:18:13;98440.66;;;5.99;100.00
74798;BME280;63326;45.088;7.658;2024-02-28T02:20:44;98434.28;;;5.83;100.00
74798;BME280;63326;45.088;7.658;2024-02-28T02:23:12;98449.97;;;5.86;100.00
74798;BME280;63326;45.088;7.658;2024-02-28T02:25:47;98463.78;;;5.90;100.00
74798;BME280;63326;45.088;7.658;2024-02-28T02:28:17;98462.94;;;5.89;100.00
74798;BME280;63326;45.088;7.658;2024-02-28T02:30:45;98449.59;;;5.81;100.00
74798;BME280;63326;45.088;7.658;2024-02-28T02:33:14;98466.44;;;5.90;100.00
74798;BME280;63326;45.088;7.658;2024-02-28T02:35:41;98464.78;;;5.89;100.00
74798;BME280;63326;45.088;7.658;2024-02-28T02:38:09;98471.78;;;5.90;100.00
74798;BME280;63326;45.088;7.658;2024-02-28T02:40:36;98468.28;;;5.89;100.00
74798;BME280;63326;45.088;7.658;2024-02-28T02:43:06;98451.94;;;5.76;100.00
74798;BME280;63326;45.088;7.658;2024-02-28T02:45:33;98458.75;;;5.79;100.00
74798;BME280;63326;45.088;7.658;2024-02-28T02:48:03;98461.91;;;5.82;100.00
74798;BME280;63326;45.088;7.658;2024-02-28T02:53:26;98489.44;;;5.91;100.00
74798;BME280;63326;45.088;7.658;2024-02-28T02:55:54;98481.06;;;5.78;100.00
74798;BME280;63326;45.088;7.658;2024-02-28T02:58:24;98496.41;;;5.84;100.00
74798;BME280;63326;45.088;7.658;2024-02-28T03:00:54;98500.56;;;5.78;100.00
74798;BME280;63326;45.088;7.658;2024-02-28T03:03:23;98501.03;;;5.74;100.00
74798;BME280;63326;45.088;7.658;2024-02-28T03:05:52;98483.50;;;5.63;100.00
74798;BME280;63326;45.088;7.658;2024-02-28T03:08:19;98504.69;;;5.73;100.00
74798;BME280;63326;45.088;7.658;2024-02-28T03:10:50;98506.88;;;5.77;100.00
74798;BME280;63326;45.088;7.658;2024-02-28T03:13:18;98505.69;;;5.72;100.00
74798;BME280;63326;45.088;7.658;2024-02-28T03:15:45;98496.69;;;5.64;100.00
74798;BME280;63326;45.088;7.658;2024-02-28T03:18:15;98500.84;;;5.67;100.00
74798;BME280;63326;45.088;7.658;2024-02-28T03:20:48;98514.84;;;5.69;100.00
74798;BME280;63326;45.088;7.658;2024-02-28T03:23:17;98509.84;;;5.66;100.00
74798;BME280;63326;45.088;7.658;2024-02-28T03:25:54;98509.16;;;5.64;100.00
74798;BME280;63326;45.088;7.658;2024-02-28T03:28:22;98496.13;;;5.45;100.00
74798;BME280;63326;45.088;7.658;2024-02-28T03:31:00;98498.25;;;5.41;100.00
74798;BME280;63326;45.088;7.658;2024-02-28T03:33:26;98522.09;;;5.51;100.00
74798;BME280;63326;45.088;7.658;2024-02-28T03:35:55;98521.59;;;5.47;100.00
74798;BME280;63326;45.088;7.658;2024-02-28T03:38:26;98525.59;;;5.51;100.00
74798;BME280;63326;45.088;7.658;2024-02-28T03:40:53;98529.75;;;5.54;100.00
74798;BME280;63326;45.088;7.658;2024-02-28T03:43:20;98538.13;;;5.59;100.00
74798;BME280;63326;45.088;7.658;2024-02-28T03:45:47;98531.28;;;5.56;100.00
74798;BME280;63326;45.088;7.658;2024-02-28T03:48:16;98517.88;;;5.40;100.00
74798;BME280;63326;45.088;7.658;2024-02-28T03:50:45;98523.41;;;5.47;100.00
74798;BME280;63326;45.088;7.658;2024-02-28T03:53:14;98535.63;;;5.57;100.00
74798;BME280;63326;45.088;7.658;2024-02-28T03:55:45;98552.94;;;5.61;100.00
74798;BME280;63326;45.088;7.658;2024-02-28T03:58:13;98552.25;;;5.59;100.00
74798;BME280;63326;45.088;7.658;2024-02-28T04:00:41;98536.53;;;5.40;100.00
74798;BME280;63326;45.088;7.658;2024-02-28T04:03:13;98543.22;;;5.44;100.00
74798;BME280;63326;45.088;7.658;2024-02-28T04:05:48;98556.88;;;5.49;100.00
74798;BME280;63326;45.088;7.658;2024-02-28T04:08:16;98563.41;;;5.55;100.00
74798;BME280;63326;45.088;7.658;2024-02-28T04:10:44;98554.69;;;5.45;100.00
74798;BME280;63326;45.088;7.658;2024-02-28T04:13:13;98547.84;;;5.42;100.00
74798;BME280;63326;45.088;7.658;2024-02-28T04:15:41;98571.75;;;5.60;100.00
74798;BME280;63326;45.088;7.658;2024-02-28T04:18:09;98565.91;;;5.56;100.00
74798;BME280;63326;45.088;7.658;2024-02-28T04:20:39;98546.56;;;5.46;100.00
74798;BME280;63326;45.088;7.658;2024-02-28T04:23:07;98580.41;;;5.62;100.00
74798;BME280;63326;45.088;7.658;2024-02-28T04:25:36;98557.53;;;5.51;100.00
74798;BME280;63326;45.088;7.658;2024-02-28T04:28:07;98582.06;;;5.63;100.00
74798;BME280;63326;45.088;7.658;2024-02-28T04:30:39;98580.78;;;5.67;100.00
74798;BME280;63326;45.088;7.658;2024-02-28T04:33:08;98583.94;;;5.71;100.00
74798;BME280;63326;45.088;7.658;2024-02-28T04:35:34;98585.44;;;5.65;100.00
74798;BME280;63326;45.088;7.658;2024-02-28T04:38:02;98576.72;;;5.55;100.00
74798;BME280;63326;45.088;7.658;2024-02-28T04:40:30;98597.75;;;5.66;100.00
74798;BME280;63326;45.088;7.658;2024-02-28T04:43:05;98599.59;;;5.66;100.00
74798;BME280;63326;45.088;7.658;2024-02-28T04:45:32;98597.94;;;5.64;100.00
74798;BME280;63326;45.088;7.658;2024-02-28T04:47:59;98604.59;;;5.69;100.00
74798;BME280;63326;45.088;7.658;2024-02-28T04:50:30;98606.59;;;5.67;100.00
74798;BME280;63326;45.088;7.658;2024-02-28T04:52:56;98604.22;;;5.63;100.00
74798;BME280;63326;45.088;7.658;2024-02-28T04:55:25;98604.53;;;5.60;100.00
74798;BME280;63326;45.088;7.658;2024-02-28T04:57:52;98599.88;;;5.54;100.00
74798;BME280;63326;45.088;7.658;2024-02-28T05:00:19;98616.88;;;5.61;100.00
74798;BME280;63326;45.088;7.658;2024-02-28T05:02:50;98602.81;;;5.51;100.00
74798;BME280;63326;45.088;7.658;2024-02-28T05:05:17;98614.75;;;5.65;100.00
74798;BME280;63326;45.088;7.658;2024-02-28T05:07:44;98618.59;;;5.71;100.00
74798;BME280;63326;45.088;7.658;2024-02-28T05:10:11;98623.91;;;5.71;100.00
74798;BME280;63326;45.088;7.658;2024-02-28T05:12:39;98628.91;;;5.66;100.00
74798;BME280;63326;45.088;7.658;2024-02-28T05:15:07;98627.91;;;5.67;100.00
74798;BME280;63326;45.088;7.658;2024-02-28T05:17:39;98614.16;;;5.53;100.00
74798;BME280;63326;45.088;7.658;2024-02-28T05:20:07;98623.69;;;5.64;100.00
74798;BME280;63326;45.088;7.658;2024-02-28T05:22:37;98622.03;;;5.63;100.00
74798;BME280;63326;45.088;7.658;2024-02-28T05:25:08;98628.69;;;5.59;100.00
74798;BME280;63326;45.088;7.658;2024-02-28T05:27:35;98630.34;;;5.60;100.00
74798;BME280;63326;45.088;7.658;2024-02-28T05:30:06;98650.22;;;5.66;100.00
74798;BME280;63326;45.088;7.658;2024-02-28T05:32:34;98643.88;;;5.67;100.00
74798;BME280;63326;45.088;7.658;2024-02-28T05:35:14;98628.84;;;5.57;100.00
74798;BME280;63326;45.088;7.658;2024-02-28T05:37:44;98651.88;;;5.67;100.00
74798;BME280;63326;45.088;7.658;2024-02-28T05:40:16;98650.88;;;5.68;100.00
74798;BME280;63326;45.088;7.658;2024-02-28T05:42:43;98652.03;;;5.65;100.00
74798;BME280;63326;45.088;7.658;2024-02-28T05:45:12;98647.53;;;5.66;100.00
74798;BME280;63326;45.088;7.658;2024-02-28T05:47:39;98656.06;;;5.69;100.00
74798;BME280;63326;45.088;7.658;2024-02-28T05:50:07;98662.22;;;5.70;100.00
74798;BME280;63326;45.088;7.658;2024-02-28T05:52:37;98665.53;;;5.72;100.00
74798;BME280;63326;45.088;7.658;2024-02-28T05:55:05;98663.56;;;5.74;100.00
74798;BME280;63326;45.088;7.658;2024-02-28T05:57:32;98665.25;;;5.75;100.00
74798;BME280;63326;45.088;7.658;2024-02-28T06:00:00;98671.25;;;5.77;100.00
74798;BME280;63326;45.088;7.658;2024-02-28T06:02:37;98660.38;;;5.70;100.00
74798;BME280;63326;45.088;7.658;2024-02-28T06:05:04;98683.59;;;5.78;100.00
74798;BME280;63326;45.088;7.658;2024-02-28T06:07:32;98675.53;;;5.70;100.00
74798;BME280;63326;45.088;7.658;2024-02-28T06:10:00;98684.88;;;5.74;100.00
74798;BME280;63326;45.088;7.658;2024-02-28T06:12:30;98691.75;;;5.76;100.00
74798;BME280;63326;45.088;7.658;2024-02-28T06:14:58;98690.34;;;5.72;100.00
74798;BME280;63326;45.088;7.658;2024-02-28T06:17:24;98667.13;;;5.56;100.00
74798;BME280;63326;45.088;7.658;2024-02-28T06:19:51;98697.22;;;5.75;100.00
74798;BME280;63326;45.088;7.658;2024-02-28T06:22:22;98700.84;;;5.74;100.00
74798;BME280;63326;45.088;7.658;2024-02-28T06:24:53;98698.56;;;5.79;100.00
74798;BME280;63326;45.088;7.658;2024-02-28T06:27:20;98692.25;;;5.80;100.00
74798;BME280;63326;45.088;7.658;2024-02-28T06:29:47;98692.25;;;5.80;100.00
74798;BME280;63326;45.088;7.658;2024-02-28T06:32:15;98708.47;;;5.94;100.00
74798;BME280;63326;45.088;7.658;2024-02-28T06:34:43;98716.03;;;5.99;100.00
74798;BME280;63326;45.088;7.658;2024-02-28T06:37:12;98708.97;;;5.90;100.00
74798;BME280;63326;45.088;7.658;2024-02-28T06:39:42;98703.47;;;5.91;100.00
74798;BME280;63326;45.088;7.658;2024-02-28T06:42:12;98705.94;;;5.85;100.00
74798;BME280;63326;45.088;7.658;2024-02-28T06:44:50;98728.28;;;5.92;100.00
74798;BME280;63326;45.088;7.658;2024-02-28T06:47:17;98737.13;;;5.92;100.00
74798;BME280;63326;45.088;7.658;2024-02-28T06:49:46;98719.56;;;5.82;100.00
74798;BME280;63326;45.088;7.658;2024-02-28T06:52:30;98738.28;;;5.90;100.00
74798;BME280;63326;45.088;7.658;2024-02-28T06:54:59;98739.94;;;5.91;100.00
74798;BME280;63326;45.088;7.658;2024-02-28T06:57:27;98734.00;;;5.97;100.00
74798;BME280;63326;45.088;7.658;2024-02-28T06:59:55;98751.41;;;6.09;100.00
74798;BME280;63326;45.088;7.658;2024-02-28T07:02:25;98741.91;;;6.07;100.00
74798;BME280;63326;45.088;7.658;2024-02-28T07:04:53;98744.41;;;6.08;100.00
74798;BME280;63326;45.088;7.658;2024-02-28T07:07:22;98751.91;;;6.13;100.00
74798;BME280;63326;45.088;7.658;2024-02-28T07:09:53;98760.59;;;6.15;100.00
74798;BME280;63326;45.088;7.658;2024-02-28T07:12:22;98734.06;;;6.05;100.00
74798;BME280;63326;45.088;7.658;2024-02-28T07:14:50;98708.06;;;6.07;100.00
74798;BME280;63326;45.088;7.658;2024-02-28T07:17:18;98750.56;;;6.43;100.00
74798;BME280;63326;45.088;7.658;2024-02-28T07:19:46;98761.44;;;6.49;100.00
74798;BME280;63326;45.088;7.658;2024-02-28T07:22:12;98742.91;;;6.40;100.00
74798;BME280;63326;45.088;7.658;2024-02-28T07:24:41;98760.94;;;6.54;100.00
74798;BME280;63326;45.088;7.658;2024-02-28T07:27:09;98757.81;;;6.59;100.00
74798;BME280;63326;45.088;7.658;2024-02-28T07:29:39;98741.78;;;6.50;100.00
74798;BME280;63326;45.088;7.658;2024-02-28T07:32:06;98759.81;;;6.65;100.00
74798;BME280;63326;45.088;7.658;2024-02-28T07:34:33;98770.91;;;6.78;100.00
74798;BME280;63326;45.088;7.658;2024-02-28T07:37:03;98763.91;;;6.85;100.00
74798;BME280;63326;45.088;7.658;2024-02-28T07:39:30;98773.81;;;7.01;100.00
74798;BME280;63326;45.088;7.658;2024-02-28T07:41:58;98772.78;;;6.94;100.00
74798;BME280;63326;45.088;7.658;2024-02-28T07:44:29;98777.47;;;7.00;100.00
74798;BME280;63326;45.088;7.658;2024-02-28T07:47:00;98792.00;;;7.05;100.00
74798;BME280;63326;45.088;7.658;2024-02-28T07:49:29;98788.81;;;7.02;100.00
74798;BME280;63326;45.088;7.658;2024-02-28T07:51:56;98793.66;;;7.06;100.00
74798;BME280;63326;45.088;7.658;2024-02-28T07:54:23;98767.59;;;6.92;100.00
74798;BME280;63326;45.088;7.658;2024-02-28T07:56:53;98798.19;;;7.14;100.00
74798;BME280;63326;45.088;7.658;2024-02-28T07:59:21;98793.53;;;7.16;100.00
74798;BME280;63326;45.088;7.658;2024-02-28T08:01:51;98780.03;;;7.18;100.00
74798;BME280;63326;45.088;7.658;2024-02-28T08:04:25;98797.78;;;7.35;100.00
74798;BME280;63326;45.088;7.658;2024-02-28T08:06:53;98791.91;;;7.31;100.00
74798;BME280;63326;45.088;7.658;2024-02-28T08:09:22;98808.81;;;7.40;100.00
74798;BME280;63326;45.088;7.658;2024-02-28T08:11:50;98807.44;;;7.28;100.00
74798;BME280;63326;45.088;7.658;2024-02-28T08:14:21;98813.31;;;7.40;100.00
74798;BME280;63326;45.088;7.658;2024-02-28T08:16:50;98836.69;;;7.46;100.00
74798;BME280;63326;45.088;7.658;2024-02-28T08:19:19;98835.22;;;7.51;100.00
74798;BME280;63326;45.088;7.658;2024-02-28T08:21:46;98821.81;;;7.35;100.00
74798;BME280;63326;45.088;7.658;2024-02-28T08:24:19;98846.38;;;7.47;100.00
74798;BME280;63326;45.088;7.658;2024-02-28T08:26:48;98737.03;;;6.87;100.00
74798;BME280;63326;45.088;7.658;2024-02-28T08:29:23;98778.84;;;7.20;100.00
74798;BME280;63326;45.088;7.658;2024-02-28T08:31:54;98805.47;;;7.38;100.00
74798;BME280;63326;45.088;7.658;2024-02-28T08:34:23;98854.44;;;7.71;100.00
74798;BME280;63326;45.088;7.658;2024-02-28T08:36:51;98857.13;;;7.79;100.00
74798;BME280;63326;45.088;7.658;2024-02-28T08:39:21;98851.44;;;7.74;100.00
74798;BME280;63326;45.088;7.658;2024-02-28T08:41:48;98866.97;;;7.87;100.00
74798;BME280;63326;45.088;7.658;2024-02-28T08:44:15;98831.41;;;7.70;100.00
74798;BME280;63326;45.088;7.658;2024-02-28T08:46:51;98815.00;;;7.65;100.00
74798;BME280;63326;45.088;7.658;2024-02-28T08:49:18;98861.47;;;8.05;100.00
74798;BME280;63326;45.088;7.658;2024-02-28T08:51:45;98850.94;;;8.03;100.00
74798;BME280;63326;45.088;7.658;2024-02-28T08:54:17;98875.69;;;8.05;100.00
74798;BME280;63326;45.088;7.658;2024-02-28T08:56:47;98877.19;;;8.08;100.00
74798;BME280;63326;45.088;7.658;2024-02-28T08:59:26;98875.03;;;8.11;100.00
74798;BME280;63326;45.088;7.658;2024-02-28T09:01:55;98867.34;;;8.00;100.00
74798;BME280;63326;45.088;7.658;2024-02-28T09:04:23;98866.31;;;7.93;100.00
74798;BME280;63326;45.088;7.658;2024-02-28T09:06:50;98875.50;;;7.99;100.00
74798;BME280;63326;45.088;7.658;2024-02-28T09:09:20;98894.91;;;8.01;100.00
74798;BME280;63326;45.088;7.658;2024-02-28T09:11:48;98901.75;;;8.03;100.00
74798;BME280;63326;45.088;7.658;2024-02-28T09:14:19;98861.31;;;7.90;100.00
74798;BME280;63326;45.088;7.658;2024-02-28T09:16:48;98905.97;;;8.22;100.00
74798;BME280;63326;45.088;7.658;2024-02-28T09:19:40;98906.63;;;8.32;100.00
74798;BME280;63326;45.088;7.658;2024-02-28T09:22:08;98811.34;;;7.74;100.00
74798;BME280;63326;45.088;7.658;2024-02-28T09:24:37;98916.16;;;8.43;100.00
74798;BME280;63326;45.088;7.658;2024-02-28T09:27:04;98919.31;;;8.46;100.00
74798;BME280;63326;45.088;7.658;2024-02-28T09:29:35;98901.75;;;8.44;100.00
74798;BME280;63326;45.088;7.658;2024-02-28T09:32:09;98905.59;;;8.49;100.00
74798;BME280;63326;45.088;7.658;2024-02-28T09:34:37;98891.69;;;8.62;100.00
74798;BME280;63326;45.088;7.658;2024-02-28T09:37:04;98903.88;;;8.81;100.00
74798;BME280;63326;45.088;7.658;2024-02-28T09:39:32;98886.84;;;8.66;100.00
74798;BME280;63326;45.088;7.658;2024-02-28T09:42:00;98895.69;;;8.66;100.00
74798;BME280;63326;45.088;7.658;2024-02-28T09:44:28;98900.56;;;8.55;100.00
74798;BME280;63326;45.088;7.658;2024-02-28T09:46:58;98876.00;;;8.27;100.00
74798;BME280;63326;45.088;7.658;2024-02-28T09:49:26;98887.38;;;8.29;100.00
74798;BME280;63326;45.088;7.658;2024-02-28T09:51:54;98927.00;;;8.58;100.00
74798;BME280;63326;45.088;7.658;2024-02-28T09:54:27;98923.13;;;8.76;100.00
74798;BME280;63326;45.088;7.658;2024-02-28T09:56:54;98915.25;;;8.83;100.00
74798;BME280;63326;45.088;7.658;2024-02-28T09:59:24;98927.25;;;9.03;100.00
74798;BME280;63326;45.088;7.658;2024-02-28T10:02:09;98899.13;;;8.99;100.00
74798;BME280;63326;45.088;7.658;2024-02-28T10:04:36;98926.88;;;9.23;100.00
74798;BME280;63326;45.088;7.658;2024-02-28T10:07:12;98941.78;;;9.25;100.00
74798;BME280;63326;45.088;7.658;2024-02-28T10:09:47;98942.97;;;9.23;100.00
74798;BME280;63326;45.088;7.658;2024-02-28T10:12:17;98944.63;;;9.24;100.00
74798;BME280;63326;45.088;7.658;2024-02-28T10:15:00;98939.56;;;9.29;100.00
74798;BME280;63326;45.088;7.658;2024-02-28T10:17:29;98951.28;;;9.36;100.00
74798;BME280;63326;45.088;7.658;2024-02-28T10:20:02;98933.72;;;9.25;100.00
74798;BME280;63326;45.088;7.658;2024-02-28T10:22:40;98952.25;;;9.43;100.00
74798;BME280;63326;45.088;7.658;2024-02-28T10:25:09;98955.97;;;9.42;100.00
74798;BME280;63326;45.088;7.658;2024-02-28T10:27:40;98954.75;;;9.45;100.00
74798;BME280;63326;45.088;7.658;2024-02-28T10:30:10;98931.50;;;9.37;100.00
74798;BME280;63326;45.088;7.658;2024-02-28T10:32:48;98960.72;;;9.63;100.00
74798;BME280;63326;45.088;7.658;2024-02-28T10:35:22;98967.06;;;9.62;100.00
74798;BME280;63326;45.088;7.658;2024-02-28T10:37:56;98913.66;;;9.52;100.00
74798;BME280;63326;45.088;7.658;2024-02-28T10:40:26;98944.47;;;9.87;100.00
74798;BME280;63326;45.088;7.658;2024-02-28T10:42:55;98938.06;;;9.96;100.00
74798;BME280;63326;45.088;7.658;2024-02-28T10:45:34;98979.63;;;10.23;100.00
74798;BME280;63326;45.088;7.658;2024-02-28T10:48:25;98976.06;;;10.31;100.00
74798;BME280;63326;45.088;7.658;2024-02-28T10:50:53;98955.41;;;10.32;100.00
74798;BME280;63326;45.088;7.658;2024-02-28T10:53:45;98976.13;;;10.46;100.00
74798;BME280;63326;45.088;7.658;2024-02-28T10:56:14;98977.06;;;10.53;100.00
74798;BME280;63326;45.088;7.658;2024-02-28T10:58:53;98969.56;;;10.63;100.00
74798;BME280;63326;45.088;7.658;2024-02-28T11:01:32;98983.75;;;10.95;100.00
74798;BME280;63326;45.088;7.658;2024-02-28T11:04:02;98977.28;;;10.89;100.00
74798;BME280;63326;45.088;7.658;2024-02-28T11:06:34;98933.56;;;10.72;100.00
74798;BME280;63326;45.088;7.658;2024-02-28T11:09:03;98964.50;;;10.91;100.00
74798;BME280;63326;45.088;7.658;2024-02-28T11:11:33;98985.84;;;11.07;100.00
74798;BME280;63326;45.088;7.658;2024-02-28T11:14:01;98981.75;;;11.11;100.00
74798;BME280;63326;45.088;7.658;2024-02-28T11:16:33;98975.91;;;11.08;100.00
74798;BME280;63326;45.088;7.658;2024-02-28T11:19:02;98977.31;;;11.19;100.00
74798;BME280;63326;45.088;7.658;2024-02-28T11:21:34;98978.91;;;11.28;100.00
74798;BME280;63326;45.088;7.658;2024-02-28T11:24:02;98959.59;;;11.24;100.00
74798;BME280;63326;45.088;7.658;2024-02-28T11:26:33;98979.91;;;11.42;100.00
74798;BME280;63326;45.088;7.658;2024-02-28T11:29:14;98980.56;;;11.29;100.00
74798;BME280;63326;45.088;7.658;2024-02-28T11:31:43;98982.69;;;11.19;100.00
74798;BME280;63326;45.088;7.658;2024-02-28T11:34:17;98963.78;;;11.42;100.00
74798;BME280;63326;45.088;7.658;2024-02-28T11:36:47;98949.03;;;11.37;100.00
74798;BME280;63326;45.088;7.658;2024-02-28T11:39:15;98966.91;;;11.60;100.00
74798;BME280;63326;45.088;7.658;2024-02-28T11:41:44;98976.66;;;11.61;100.00
74798;BME280;63326;45.088;7.658;2024-02-28T11:44:17;98975.00;;;11.30;100.00
74798;BME280;63326;45.088;7.658;2024-02-28T11:46:48;98971.28;;;11.31;100.00
74798;BME280;63326;45.088;7.658;2024-02-28T11:49:17;98979.81;;;11.20;100.00
74798;BME280;63326;45.088;7.658;2024-02-28T11:51:45;98968.03;;;11.06;100.00
74798;BME280;63326;45.088;7.658;2024-02-28T11:54:12;98971.72;;;10.91;100.00
74798;BME280;63326;45.088;7.658;2024-02-28T11:56:43;98972.44;;;10.85;100.00
74798;BME280;63326;45.088;7.658;2024-02-28T11:59:13;98965.78;;;10.80;100.00
74798;BME280;63326;45.088;7.658;2024-02-28T12:01:43;98962.06;;;10.81;100.00
74798;BME280;63326;45.088;7.658;2024-02-28T12:04:28;98957.94;;;10.71;100.00
74798;BME280;63326;45.088;7.658;2024-02-28T12:06:57;98967.47;;;10.73;100.00
74798;BME280;63326;45.088;7.658;2024-02-28T12:09:26;98960.94;;;10.76;100.00
74798;BME280;63326;45.088;7.658;2024-02-28T12:12:07;98927.78;;;10.83;100.00
74798;BME280;63326;45.088;7.658;2024-02-28T12:14:36;98927.91;;;10.90;100.00
74798;BME280;63326;45.088;7.658;2024-02-28T12:17:05;98953.47;;;11.16;100.00
74798;BME280;63326;45.088;7.658;2024-02-28T12:19:34;98951.44;;;11.32;100.00
74798;BME280;63326;45.088;7.658;2024-02-28T12:22:04;98950.31;;;11.42;100.00
74798;BME280;63326;45.088;7.658;2024-02-28T12:24:42;98935.78;;;11.21;100.00
74798;BME280;63326;45.088;7.658;2024-02-28T12:27:24;98906.41;;;11.20;100.00
74798;BME280;63326;45.088;7.658;2024-02-28T12:29:56;98868.69;;;11.13;100.00
74798;BME280;63326;45.088;7.658;2024-02-28T12:32:25;98894.59;;;11.35;100.00
74798;BME280;63326;45.088;7.658;2024-02-28T12:34:55;98867.66;;;11.14;100.00
74798;BME280;63326;45.088;7.658;2024-02-28T12:37:21;98898.84;;;11.59;100.00
74798;BME280;63326;45.088;7.658;2024-02-28T12:39:48;98871.28;;;11.06;100.00
74798;BME280;63326;45.088;7.658;2024-02-28T12:42:22;98833.56;;;11.00;100.00
74798;BME280;63326;45.088;7.658;2024-02-28T12:44:55;98926.06;;;11.71;100.00
74798;BME280;63326;45.088;7.658;2024-02-28T12:47:23;98889.84;;;11.67;100.00
74798;BME280;63326;45.088;7.658;2024-02-28T12:49:50;98907.69;;;11.75;100.00
74798;BME280;63326;45.088;7.658;2024-02-28T12:52:20;98871.22;;;11.51;100.00
74798;BME280;63326;45.088;7.658;2024-02-28T12:54:48;98910.28;;;11.83;100.00
74798;BME280;63326;45.088;7.658;2024-02-28T12:57:19;98872.97;;;11.58;100.00
74798;BME280;63326;45.088;7.658;2024-02-28T12:59:47;98838.09;;;11.29;100.00
74798;BME280;63326;45.088;7.658;2024-02-28T13:02:18;98893.28;;;11.46;100.00
74798;BME280;63326;45.088;7.658;2024-02-28T13:04:47;98861.97;;;11.38;100.00
74798;BME280;63326;45.088;7.658;2024-02-28T13:07:13;98859.66;;;11.35;100.00
74798;BME280;63326;45.088;7.658;2024-02-28T13:09:41;98896.47;;;11.71;100.00
74798;BME280;63326;45.088;7.658;2024-02-28T13:12:08;98865.13;;;11.78;100.00
74798;BME280;63326;45.088;7.658;2024-02-28T13:14:42;98882.56;;;12.25;100.00